Time;durP1;ratioP1;P1;durP2;ratioP2;P2;SDS_P1;SDS_P2;PMS_P1;PMS_P2;Temp;Humidity;BMP_temperature;BMP_pressure;BME280_temperature;BME280_humidity;BME280_pressure;Samples;Min_cycle;Max_cycle;Signal;HPM_P1;HPM_P2
2022/06/10 00:00:45;;;;;;;7.00;3.47;;;;;;;19.55;61.88;94129.97;4997820;28;20250;-67
2022/06/10 00:03:13;;;;;;;4.40;3.92;;;;;;;19.55;62.17;94129.16;4998173;28;20223;-64
2022/06/10 00:05:39;;;;;;;5.43;3.92;;;;;;;19.54;62.37;94128.38;4993189;28;20219;-67
2022/06/10 00:08:11;;;;;;;5.05;4.28;;;;;;;19.37;63.14;94128.19;4994333;28;20369;-68
2022/06/10 00:10:36;;;;;;;4.85;4.22;;;;;;;19.23;63.89;94121.44;5001070;28;20210;-66
2022/06/10 00:13:03;;;;;;;4.68;4.28;;;;;;;19.21;64.19;94123.50;5003564;28;20194;-68
2022/06/10 00:15:29;;;;;;;8.10;4.07;;;;;;;19.29;63.91;94130.38;4988864;28;20243;-67
2022/06/10 00:17:55;;;;;;;4.47;4.07;;;;;;;19.23;63.57;94117.97;4997384;28;20223;-65
2022/06/10 00:20:25;;;;;;;4.82;4.43;;;;;;;19.19;63.79;94130.91;4990410;28;20242;-67
2022/06/10 00:22:50;;;;;;;5.20;4.72;;;;;;;19.12;63.94;94130.19;4991359;28;20231;-64
2022/06/10 00:25:17;;;;;;;7.10;4.47;;;;;;;19.05;64.43;94134.81;4990723;28;20218;-65
2022/06/10 00:27:43;;;;;;;6.95;4.47;;;;;;;19.09;64.69;94125.34;4994126;28;20228;-65
2022/06/10 00:30:10;;;;;;;4.40;4.00;;;;;;;19.15;64.45;94124.41;4997015;28;20304;-69
2022/06/10 00:32:35;;;;;;;4.28;3.85;;;;;;;19.12;63.57;94122.22;4997551;28;20223;-65
2022/06/10 00:35:00;;;;;;;4.25;3.40;;;;;;;19.13;63.51;94123.81;4999855;28;20285;-68
2022/06/10 00:37:26;;;;;;;4.28;3.75;;;;;;;19.21;63.19;94117.38;4999305;28;20577;-65
2022/06/10 00:39:52;;;;;;;5.75;4.57;;;;;;;19.16;63.42;94116.22;4993236;28;20721;-65
2022/06/10 00:42:17;;;;;;;5.32;4.07;;;;;;;19.05;64.33;94122.28;4993285;28;20224;-69
2022/06/10 00:44:46;;;;;;;4.95;4.43;;;;;;;19.04;64.65;94114.53;4985156;28;20227;-69
2022/06/10 00:47:18;;;;;;;6.72;5.03;;;;;;;19.03;64.66;94108.41;4995636;28;20250;-68
2022/06/10 00:49:50;;;;;;;6.60;4.60;;;;;;;19.04;64.32;94106.53;4988820;28;20302;-69
2022/06/10 00:52:24;;;;;;;6.03;5.05;;;;;;;19.09;64.41;94112.00;4996763;28;20226;-69
2022/06/10 00:54:52;;;;;;;7.35;4.30;;;;;;;19.10;64.05;94113.63;4999035;28;20341;-65
2022/06/10 00:57:25;;;;;;;5.07;4.10;;;;;;;19.13;64.34;94105.16;4992252;28;20230;-68
2022/06/10 01:00:16;;;;;;;5.10;4.60;;;;;;;19.16;64.25;94100.22;5001765;28;20231;-69
2022/06/10 01:02:43;;;;;;;5.53;4.40;;;;;;;19.14;64.08;94107.63;4962467;28;20227;-65
2022/06/10 01:05:16;;;;;;;4.85;4.32;;;;;;;19.11;64.19;94109.91;4963170;28;20259;-65
2022/06/10 01:08:05;;;;;;;5.32;4.40;;;;;;;19.12;64.23;94115.03;4950270;28;20314;-69
2022/06/10 01:10:41;;;;;;;4.68;4.28;;;;;;;19.10;64.43;94111.75;4977156;28;20246;-68
2022/06/10 01:13:24;;;;;;;4.88;4.47;;;;;;;19.23;64.02;94115.28;4962952;28;20287;-66
2022/06/10 01:15:56;;;;;;;4.70;4.30;;;;;;;19.17;64.01;94109.03;4963095;28;20303;-64
2022/06/10 01:18:40;;;;;;;5.40;4.22;;;;;;;19.06;63.96;94101.78;4975438;28;20235;-64
2022/06/10 01:21:08;;;;;;;4.78;4.35;;;;;;;19.04;64.24;94103.88;4971691;28;20265;-64
2022/06/10 01:23:48;;;;;;;5.22;4.25;;;;;;;19.01;64.25;94107.00;4977045;28;20259;-64
2022/06/10 01:30:05;;;;;;;5.25;4.57;;;;;;;18.98;64.69;94107.44;4991618;28;20281;-66
2022/06/10 01:32:58;;;;;;;4.95;4.43;;;;;;;18.92;65.61;94104.66;4941140;28;20224;-66
2022/06/10 01:35:50;;;;;;;5.00;4.60;;;;;;;18.79;66.33;94107.50;4955702;28;20223;-69
2022/06/10 01:38:34;;;;;;;5.38;4.60;;;;;;;18.67;67.49;94107.38;4943223;28;20317;-69
2022/06/10 01:41:18;;;;;;;5.55;5.00;;;;;;;18.79;67.22;94110.16;4946519;28;20220;-66
2022/06/10 01:44:04;;;;;;;4.90;4.45;;;;;;;18.63;67.94;94110.72;4959268;28;20220;-64
2022/06/10 01:46:33;;;;;;;6.03;5.00;;;;;;;18.70;68.33;94112.25;4965026;28;20206;-67
2022/06/10 01:49:11;;;;;;;5.03;4.45;;;;;;;18.75;68.73;94114.28;4961926;28;20208;-68
2022/06/10 01:51:45;;;;;;;6.18;5.43;;;;;;;18.82;69.08;94115.03;4941262;28;20236;-67
2022/06/10 01:54:17;;;;;;;6.25;5.28;;;;;;;18.79;69.38;94115.47;4939783;28;20220;-64
2022/06/10 01:56:46;;;;;;;5.80;5.40;;;;;;;18.74;69.07;94117.97;4945983;28;20236;-67
2022/06/10 01:59:37;;;;;;;6.63;6.03;;;;;;;18.68;69.20;94110.84;4941971;28;20298;-67
2022/06/10 02:02:08;;;;;;;6.25;5.72;;;;;;;18.65;70.01;94114.78;4958028;28;20252;-64
2022/06/10 02:04:43;;;;;;;8.48;6.00;;;;;;;18.67;70.03;94117.22;4953925;28;20214;-68
2022/06/10 02:07:11;;;;;;;6.47;5.97;;;;;;;18.60;70.52;94119.16;4957230;28;20236;-69
2022/06/10 02:09:42;;;;;;;6.40;5.85;;;;;;;18.65;69.32;94120.09;4977472;28;20221;-68
2022/06/10 02:12:28;;;;;;;8.30;6.22;;;;;;;18.82;68.13;94123.00;5004161;28;20282;-69
2022/06/10 02:14:59;;;;;;;6.20;5.63;;;;;;;18.67;68.52;94118.03;4991288;28;21252;-69
2022/06/10 02:17:31;;;;;;;5.90;5.40;;;;;;;18.65;68.86;94122.75;4990716;28;20528;-68
2022/06/10 02:19:59;;;;;;;6.38;5.72;;;;;;;18.62;69.28;94120.56;4991093;28;20268;-70
2022/06/10 02:22:34;;;;;;;6.32;5.72;;;;;;;18.44;71.36;94129.38;4990068;28;20205;-69
2022/06/10 02:25:06;;;;;;;6.43;5.93;;;;;;;18.44;72.19;94121.41;4978766;28;20512;-65
2022/06/10 02:27:37;;;;;;;6.50;6.00;;;;;;;18.54;72.05;94122.72;4988467;28;20317;-67
2022/06/10 02:30:08;;;;;;;5.90;5.40;;;;;;;18.65;71.85;94127.28;4994086;28;20235;-66
2022/06/10 02:32:36;;;;;;;6.93;5.80;;;;;;;18.65;71.48;94124.63;4993523;28;20231;-64
2022/06/10 02:35:03;;;;;;;5.90;5.45;;;;;;;18.64;71.28;94126.47;4997204;28;20265;-66
2022/06/10 02:38:09;;;;;;;7.35;5.80;;;;;;;18.57;71.57;94133.72;5002935;28;20222;-68
2022/06/10 02:40:37;;;;;;;5.90;5.32;;;;;;;18.66;71.54;94136.91;4955774;28;20268;-66
2022/06/10 02:43:36;;;;;;;6.35;5.50;;;;;;;18.65;70.26;94136.06;4964036;28;20223;-69
2022/06/10 02:46:02;;;;;;;6.40;5.60;;;;;;;18.56;71.13;94139.28;4978220;28;20235;-67
2022/06/10 02:48:42;;;;;;;8.10;5.53;;;;;;;18.48;71.33;94135.88;4962549;28;20220;-65
2022/06/10 02:51:07;;;;;;;7.70;6.32;;;;;;;18.54;71.64;94136.03;4968123;28;20532;-67
2022/06/10 02:53:33;;;;;;;5.70;5.18;;;;;;;18.55;71.26;94141.13;4983652;28;20232;-70
2022/06/10 02:56:01;;;;;;;6.50;5.90;;;;;;;18.38;71.47;94140.09;4978091;28;20223;-67
2022/06/10 03:01:12;;;;;;;6.45;5.95;;;;;;;18.42;72.02;94141.28;4976117;28;20226;-67
2022/06/10 03:04:04;;;;;;;7.68;6.70;;;;;;;18.56;72.11;94142.75;4979896;28;20228;-67
2022/06/10 03:06:44;;;;;;;7.18;6.35;;;;;;;18.50;72.83;94141.78;4958010;28;20223;-67
2022/06/10 03:09:17;;;;;;;6.57;6.07;;;;;;;18.36;73.74;94139.47;4961846;28;20220;-67
2022/06/10 03:12:14;;;;;;;7.57;6.85;;;;;;;18.29;74.39;94142.22;4974694;28;20309;-67
2022/06/10 03:15:04;;;;;;;6.85;6.25;;;;;;;18.26;74.62;94140.00;4954793;28;20370;-66
2022/06/10 03:18:00;;;;;;;6.85;6.00;;;;;;;18.25;73.58;94149.81;4981160;28;20305;-67
2022/06/10 03:20:41;;;;;;;6.85;6.20;;;;;;;18.46;73.18;94147.78;4992035;28;20271;-67
2022/06/10 03:23:42;;;;;;;6.85;6.13;;;;;;;18.54;72.11;94146.66;4978082;28;20245;-68
2022/06/10 03:26:19;;;;;;;7.30;6.70;;;;;;;18.59;72.09;94144.16;4967529;28;20610;-67
2022/06/10 03:29:08;;;;;;;7.75;6.97;;;;;;;18.40;73.23;94146.81;4985507;28;20271;-67
2022/06/10 03:31:46;;;;;;;7.65;6.95;;;;;;;18.44;73.72;94153.34;4982556;28;20222;-66
2022/06/10 03:34:22;;;;;;;7.20;6.60;;;;;;;18.05;74.53;94146.56;4981723;28;20207;-70
2022/06/10 03:36:48;;;;;;;8.15;7.45;;;;;;;18.17;75.18;94147.44;4966948;28;20231;-66
2022/06/10 03:39:14;;;;;;;8.07;7.32;;;;;;;18.29;75.74;94158.19;4982252;28;20236;-70
2022/06/10 03:41:53;;;;;;;8.13;7.32;;;;;;;18.29;75.43;94153.69;4981650;28;20230;-66
2022/06/10 03:44:20;;;;;;;7.20;6.63;;;;;;;18.37;74.49;94146.44;4985429;28;20226;-67
2022/06/10 03:46:48;;;;;;;7.28;6.68;;;;;;;18.34;74.36;94161.00;4983175;28;20221;-70
2022/06/10 03:49:17;;;;;;;7.63;6.85;;;;;;;18.33;75.04;94154.03;4983677;28;20215;-67
2022/06/10 03:51:44;;;;;;;7.88;7.18;;;;;;;18.36;75.38;94161.56;4979858;28;20235;-68
2022/06/10 03:54:15;;;;;;;8.40;7.57;;;;;;;18.39;75.37;94158.50;4983493;28;20242;-70
2022/06/10 03:56:41;;;;;;;8.50;7.78;;;;;;;18.44;75.96;94158.66;4980711;28;20238;-66
2022/06/10 03:59:06;;;;;;;8.65;7.95;;;;;;;18.37;76.37;94160.56;4984215;28;20245;-71
2022/06/10 04:01:31;;;;;;;8.45;7.68;;;;;;;18.38;75.24;94167.50;4985669;28;20210;-68
2022/06/10 04:03:58;;;;;;;7.75;7.05;;;;;;;18.42;74.97;94162.56;5001465;28;20211;-68
2022/06/10 04:06:23;;;;;;;7.78;7.07;;;;;;;18.43;74.10;94170.31;4991699;28;20226;-67
2022/06/10 04:08:49;;;;;;;10.32;7.43;;;;;;;18.49;73.93;94164.09;4985437;28;20227;-66
2022/06/10 04:11:14;;;;;;;7.85;7.13;;;;;;;18.52;73.59;94169.00;4996439;28;20354;-65
2022/06/10 04:13:40;;;;;;;7.30;6.75;;;;;;;18.52;73.52;94168.16;4993106;28;20210;-68
2022/06/10 04:16:05;;;;;;;7.40;6.60;;;;;;;18.41;73.85;94163.59;4998161;28;20249;-69
2022/06/10 04:18:31;;;;;;;7.40;6.80;;;;;;;18.38;74.54;94164.84;5000622;28;20286;-69
2022/06/10 04:20:56;;;;;;;6.63;6.13;;;;;;;18.55;73.30;94164.25;4997643;28;20308;-66
2022/06/10 04:23:22;;;;;;;5.85;5.45;;;;;;;18.61;71.25;94166.84;4995408;28;20227;-68
2022/06/10 04:25:47;;;;;;;8.32;6.10;;;;;;;18.56;71.89;94158.72;4999458;28;20234;-62
2022/06/10 04:28:14;;;;;;;5.43;5.03;;;;;;;18.56;71.77;94160.56;4998421;28;20298;-70
2022/06/10 04:30:48;;;;;;;5.93;5.43;;;;;;;18.63;71.64;94161.28;4996882;28;20227;-70
2022/06/10 04:33:14;;;;;;;7.03;6.43;;;;;;;18.55;72.46;94170.41;4991463;28;20251;-65
2022/06/10 04:35:43;;;;;;;6.57;5.93;;;;;;;18.63;72.42;94170.13;5000086;28;20234;-67
2022/06/10 04:38:08;;;;;;;6.70;5.47;;;;;;;18.67;71.69;94167.81;4995140;28;20234;-66
2022/06/10 04:40:37;;;;;;;6.78;5.35;;;;;;;18.67;72.54;94175.81;4996068;28;20215;-65
2022/06/10 04:43:03;;;;;;;7.00;5.43;;;;;;;18.65;71.67;94181.34;4989885;28;20294;-70
2022/06/10 04:45:34;;;;;;;6.07;5.47;;;;;;;18.63;71.25;94180.78;4998086;28;20576;-66
2022/06/10 04:48:00;;;;;;;10.07;9.18;;;;;;;18.68;71.78;94180.91;4998291;28;20230;-65
2022/06/10 04:50:27;;;;;;;11.00;10.10;;;;;;;18.70;72.30;94178.03;4988045;28;20227;-69
2022/06/10 04:52:53;;;;;;;9.77;8.98;;;;;;;18.66;72.45;94179.50;4995396;28;20235;-70
2022/06/10 04:55:19;;;;;;;9.15;8.45;;;;;;;18.81;72.06;94187.16;5000699;28;20230;-72
2022/06/10 04:57:45;;;;;;;7.55;6.95;;;;;;;18.77;72.24;94189.44;4997734;28;20215;-69
2022/06/10 05:00:19;;;;;;;7.32;6.65;;;;;;;18.83;72.10;94185.88;4990825;28;20223;-70
2022/06/10 05:02:45;;;;;;;7.30;5.80;;;;;;;18.87;72.33;94188.91;4993574;28;20214;-66
2022/06/10 05:05:10;;;;;;;5.60;5.10;;;;;;;18.92;71.07;94191.72;4994652;28;20231;-64
2022/06/10 05:07:36;;;;;;;5.75;5.15;;;;;;;18.93;70.63;94196.03;4993917;28;20199;-68
2022/06/10 05:10:03;;;;;;;5.50;5.10;;;;;;;19.01;70.51;94192.25;4995784;28;20226;-73
2022/06/10 05:12:29;;;;;;;7.35;5.35;;;;;;;19.12;70.04;94192.31;4988611;28;20317;-72
2022/06/10 05:14:54;;;;;;;11.70;5.05;;;;;;;19.13;70.02;94198.44;5002729;28;20326;-72
2022/06/10 05:17:20;;;;;;;6.20;5.53;;;;;;;19.01;70.07;94192.25;4987680;28;20349;-66
2022/06/10 05:19:47;;;;;;;6.25;5.43;;;;;;;19.10;71.73;94196.22;4986198;28;20215;-72
2022/06/10 05:22:15;;;;;;;6.38;5.78;;;;;;;19.12;72.89;94202.97;4999307;28;20351;-64
2022/06/10 05:24:42;;;;;;;7.75;6.80;;;;;;;19.21;73.27;94208.78;4994337;28;20227;-65
2022/06/10 05:27:08;;;;;;;7.10;6.50;;;;;;;19.20;72.55;94203.69;4996631;28;20318;-65
2022/06/10 05:29:33;;;;;;;8.32;7.32;;;;;;;19.28;72.30;94208.72;4996450;28;20310;-64
2022/06/10 05:31:59;;;;;;;7.75;6.95;;;;;;;19.38;72.44;94203.66;4998185;28;20285;-63
2022/06/10 05:37:08;;;;;;;7.82;7.13;;;;;;;19.61;71.73;94211.72;4996502;28;20226;-72
2022/06/10 05:39:33;;;;;;;7.78;6.97;;;;;;;19.65;69.91;94204.09;4998821;28;20231;-67
2022/06/10 05:42:04;;;;;;;7.22;6.57;;;;;;;19.72;70.09;94206.69;4996749;28;20245;-71
2022/06/10 05:44:34;;;;;;;7.70;7.00;;;;;;;19.74;69.88;94208.09;4997201;28;20227;-67
2022/06/10 05:47:03;;;;;;;8.32;7.63;;;;;;;19.91;68.80;94213.56;5000485;28;20379;-71
2022/06/10 05:49:29;;;;;;;8.68;7.78;;;;;;;19.90;68.81;94205.81;5004270;28;20214;-69
2022/06/10 05:51:55;;;;;;;11.07;7.45;;;;;;;19.80;69.52;94201.81;4994219;28;20199;-68
2022/06/10 05:54:22;;;;;;;7.32;6.75;;;;;;;19.98;68.78;94211.63;4997172;28;20325;-68
2022/06/10 05:56:47;;;;;;;9.48;7.30;;;;;;;19.99;68.78;94209.75;4993393;28;20227;-69
2022/06/10 05:59:14;;;;;;;9.75;7.25;;;;;;;20.00;69.23;94212.22;4991462;28;20281;-66
2022/06/10 06:01:40;;;;;;;7.85;7.05;;;;;;;20.05;68.77;94215.00;4998622;28;20231;-71
2022/06/10 06:04:05;;;;;;;7.75;7.15;;;;;;;19.95;68.63;94217.41;4993297;28;20215;-68
2022/06/10 06:06:31;;;;;;;10.65;9.15;;;;;;;19.95;70.79;94221.94;4992784;28;20293;-66
2022/06/10 06:08:56;;;;;;;11.50;10.48;;;;;;;19.99;70.53;94220.44;4991126;28;20218;-70
2022/06/10 06:11:22;;;;;;;12.50;11.50;;;;;;;19.93;71.34;94224.03;4983951;28;20269;-66
2022/06/10 06:13:47;;;;;;;11.65;10.65;;;;;;;19.93;70.23;94224.03;4990183;28;20269;-69
2022/06/10 06:16:15;;;;;;;10.93;9.98;;;;;;;19.82;70.82;94218.41;4994479;28;20242;-67
2022/06/10 06:18:41;;;;;;;11.38;10.38;;;;;;;19.87;71.52;94222.28;4991833;28;20227;-69
2022/06/10 06:21:06;;;;;;;13.48;12.38;;;;;;;19.80;71.73;94217.84;4999492;28;20273;-69
2022/06/10 06:23:32;;;;;;;16.85;15.25;;;;;;;19.74;72.05;94221.41;5002722;28;20234;-71
2022/06/10 06:25:58;;;;;;;13.25;12.05;;;;;;;19.73;71.83;94232.34;4997221;28;20227;-67
2022/06/10 06:28:23;;;;;;;13.15;11.68;;;;;;;19.72;72.46;94236.03;4998665;28;20199;-72
2022/06/10 06:30:49;;;;;;;11.68;10.65;;;;;;;19.64;72.64;94239.78;5000875;28;20219;-66
2022/06/10 06:33:14;;;;;;;13.52;12.32;;;;;;;19.67;72.37;94239.38;4998648;28;20223;-64
2022/06/10 06:35:44;;;;;;;12.25;11.02;;;;;;;19.62;71.98;94231.22;5000583;28;20222;-63
2022/06/10 06:38:10;;;;;;;10.15;9.35;;;;;;;19.70;71.80;94243.44;5001059;28;20243;-66
2022/06/10 06:40:35;;;;;;;10.23;9.23;;;;;;;19.64;71.71;94234.47;4992542;28;20230;-67
2022/06/10 06:43:01;;;;;;;9.90;9.00;;;;;;;19.55;72.30;94233.16;4991014;28;20231;-67
2022/06/10 06:45:29;;;;;;;10.07;9.23;;;;;;;19.65;72.18;94241.44;4989691;28;20318;-68
2022/06/10 06:47:55;;;;;;;10.57;9.68;;;;;;;19.66;72.14;94237.75;4989831;28;20226;-65
2022/06/10 06:50:26;;;;;;;10.13;9.23;;;;;;;19.67;71.78;94233.22;4995156;28;20249;-63
2022/06/10 06:52:53;;;;;;;9.57;8.85;;;;;;;19.88;69.98;94242.56;4991243;28;20238;-63
2022/06/10 06:55:20;;;;;;;9.50;8.80;;;;;;;19.94;70.52;94239.81;4998103;28;20207;-62
2022/06/10 06:57:46;;;;;;;9.60;8.63;;;;;;;20.07;69.65;94240.63;4998325;28;20321;-66
2022/06/10 07:00:15;;;;;;;9.38;8.57;;;;;;;19.80;70.36;94233.03;5004992;28;20309;-63
2022/06/10 07:02:40;;;;;;;10.65;9.63;;;;;;;19.80;71.20;94233.03;4998902;28;20226;-67
2022/06/10 07:05:07;;;;;;;9.13;8.23;;;;;;;19.95;71.05;94236.09;4995180;28;20314;-70
2022/06/10 07:07:32;;;;;;;9.18;8.40;;;;;;;20.11;69.21;94239.94;4998336;28;20234;-70
2022/06/10 07:09:58;;;;;;;9.20;8.40;;;;;;;20.13;69.53;94237.03;4991006;28;20195;-68
2022/06/10 07:12:24;;;;;;;10.25;9.43;;;;;;;20.21;69.34;94242.06;5001289;28;20227;-70
2022/06/10 07:14:50;;;;;;;9.80;9.00;;;;;;;20.24;68.87;94239.75;4999393;28;20265;-68
2022/06/10 07:17:17;;;;;;;10.88;9.43;;;;;;;20.25;68.03;94245.88;4997508;28;20242;-69
2022/06/10 07:19:42;;;;;;;10.02;9.10;;;;;;;20.21;68.25;94244.75;5000818;28;20253;-62
2022/06/10 07:22:08;;;;;;;11.82;10.88;;;;;;;20.28;67.03;94245.41;5002051;28;20215;-64
2022/06/10 07:24:33;;;;;;;9.93;9.13;;;;;;;20.36;66.60;94236.25;5000591;28;20317;-69
2022/06/10 07:27:00;;;;;;;9.50;8.65;;;;;;;20.37;66.16;94230.69;5000556;28;20219;-64
2022/06/10 07:29:27;;;;;;;8.98;7.85;;;;;;;20.45;65.42;94235.69;4996916;28;20223;-64
2022/06/10 07:31:53;;;;;;;10.05;9.32;;;;;;;20.41;65.05;94234.53;4999297;28;20227;-65
2022/06/10 07:34:19;;;;;;;9.88;8.98;;;;;;;20.44;65.51;94239.41;4995943;28;20222;-64
2022/06/10 07:36:45;;;;;;;10.52;9.52;;;;;;;20.56;66.27;94250.13;5000440;28;20223;-68
2022/06/10 07:39:11;;;;;;;10.18;9.27;;;;;;;20.59;66.04;94254.19;4997871;28;20227;-69
2022/06/10 07:44:20;;;;;;;9.50;8.57;;;;;;;20.64;65.22;94256.97;4993982;28;20222;-64
2022/06/10 07:46:51;;;;;;;9.55;8.77;;;;;;;20.62;65.13;94248.38;4999543;28;20200;-67
2022/06/10 07:49:18;;;;;;;9.88;8.80;;;;;;;20.60;64.67;94245.94;4996838;28;20195;-68
2022/06/10 07:51:44;;;;;;;9.88;9.07;;;;;;;20.76;64.59;94249.75;4995226;28;20259;-64
2022/06/10 07:54:10;;;;;;;9.23;8.43;;;;;;;20.76;64.20;94251.63;4998127;28;20258;-67
2022/06/10 07:56:36;;;;;;;8.40;7.80;;;;;;;20.91;63.12;94247.44;4993128;28;20254;-69
2022/06/10 07:59:01;;;;;;;8.75;6.75;;;;;;;21.01;62.81;94252.19;4996895;28;20322;-69
2022/06/10 08:01:28;;;;;;;7.15;6.55;;;;;;;21.06;61.62;94249.63;5000943;28;20218;-64
2022/06/10 08:03:55;;;;;;;7.32;6.72;;;;;;;21.15;63.24;94253.53;5001572;28;21325;-64
2022/06/10 08:06:23;;;;;;;8.02;7.28;;;;;;;21.34;61.23;94245.38;5001692;28;20222;-70
2022/06/10 08:08:49;;;;;;;9.32;8.20;;;;;;;21.44;62.01;94245.59;5002089;28;20221;-69
2022/06/10 08:11:15;;;;;;;9.23;8.35;;;;;;;21.54;61.08;94248.47;4987913;28;20236;-66
2022/06/10 08:13:40;;;;;;;9.63;8.27;;;;;;;21.61;60.91;94253.66;4990561;28;20209;-65
2022/06/10 08:16:06;;;;;;;11.13;9.98;;;;;;;21.51;62.27;94259.63;4999448;28;20249;-66
2022/06/10 08:18:33;;;;;;;9.95;8.05;;;;;;;21.62;61.03;94263.31;4993332;28;20230;-70
2022/06/10 08:23:44;;;;;;;8.13;7.35;;;;;;;21.81;59.78;94258.56;4995917;28;20257;-66
2022/06/10 08:26:12;;;;;;;9.82;7.32;;;;;;;21.97;58.86;94262.34;4999851;28;20223;-68
2022/06/10 08:28:40;;;;;;;9.10;7.68;;;;;;;22.06;59.34;94255.56;4997379;28;20289;-66
2022/06/10 08:31:05;;;;;;;10.60;8.05;;;;;;;21.70;60.02;94256.78;4999934;28;20207;-64
2022/06/10 08:33:31;;;;;;;8.38;7.57;;;;;;;21.70;60.31;94256.78;4998090;28;20276;-68
2022/06/10 08:35:58;;;;;;;8.98;8.15;;;;;;;21.84;59.04;94268.00;4998493;28;20223;-69
2022/06/10 08:38:24;;;;;;;8.63;7.82;;;;;;;21.81;60.01;94269.28;4999240;28;20231;-69
2022/06/10 08:41:12;;;;;;;10.73;7.63;;;;;;;22.29;58.90;94273.34;4994151;28;20242;-71
2022/06/10 08:44:10;;;;;;;6.85;6.20;;;;;;;22.17;57.54;94277.97;5001154;28;20223;-67
2022/06/10 08:46:54;;;;;;;10.60;6.28;;;;;;;21.83;57.59;94271.72;4995073;28;20202;-64
2022/06/10 08:49:43;;;;;;;7.30;6.65;;;;;;;21.99;58.22;94269.06;5013826;28;20223;-67
2022/06/10 08:52:26;;;;;;;8.05;7.25;;;;;;;22.48;57.42;94275.81;4987445;28;20235;-65
2022/06/10 08:55:32;;;;;;;9.55;8.73;;;;;;;22.73;56.15;94273.53;5008147;28;20218;-66
2022/06/10 08:58:02;;;;;;;7.32;6.65;;;;;;;22.39;55.74;94276.22;4949993;28;20270;-66
2022/06/10 09:00:36;;;;;;;7.38;6.75;;;;;;;22.83;55.27;94272.88;4937511;28;20216;-64
2022/06/10 09:03:13;;;;;;;9.05;8.30;;;;;;;23.09;54.33;94272.22;4957897;28;20580;-67
2022/06/10 09:05:50;;;;;;;8.45;7.40;;;;;;;23.20;54.60;94265.13;4945375;28;20216;-66
2022/06/10 09:08:24;;;;;;;7.80;7.07;;;;;;;23.01;55.04;94271.81;4945429;28;20235;-64
2022/06/10 09:10:53;;;;;;;7.13;6.55;;;;;;;23.22;53.94;94284.44;4942280;28;20285;-64
2022/06/10 09:13:32;;;;;;;6.85;6.22;;;;;;;23.20;53.86;94277.69;4965154;28;20253;-63
2022/06/10 09:16:23;;;;;;;6.72;6.28;;;;;;;23.01;54.35;94283.34;4954742;28;20254;-64
2022/06/10 09:19:26;;;;;;;8.13;7.47;;;;;;;22.54;55.32;94278.34;4958562;28;20266;-63
2022/06/10 09:22:05;;;;;;;6.50;6.00;;;;;;;21.73;56.93;94275.00;4957957;28;20239;-64
2022/06/10 09:24:58;;;;;;;7.80;7.20;;;;;;;22.10;56.98;94275.41;4951534;28;20231;-66
2022/06/10 09:27:26;;;;;;;8.60;7.63;;;;;;;22.11;58.41;94270.91;4907987;29;20230;-67
2022/06/10 09:29:52;;;;;;;8.65;7.82;;;;;;;21.94;60.18;94276.22;4892891;29;20433;-62
2022/06/10 09:32:44;;;;;;;8.25;7.65;;;;;;;21.39;61.70;94277.59;4930291;28;20240;-63
2022/06/10 09:35:37;;;;;;;9.35;8.30;;;;;;;21.04;64.65;94277.63;4931278;29;20241;-65
2022/06/10 09:38:25;;;;;;;9.45;8.63;;;;;;;20.60;64.66;94283.31;4944190;28;20303;-65
2022/06/10 09:41:35;;;;;;;10.80;9.63;;;;;;;20.74;67.15;94302.59;4922405;29;20236;-69
2022/06/10 09:44:32;;;;;;;23.08;15.30;;;;;;;20.78;73.45;94292.28;4931346;29;20312;-67
2022/06/10 09:47:31;;;;;;;13.27;11.90;;;;;;;20.40;69.26;94296.19;4929590;28;20239;-69
2022/06/10 09:49:57;;;;;;;12.25;11.15;;;;;;;20.02;70.17;94294.69;4949463;28;20224;-76
2022/06/10 09:52:58;;;;;;;12.13;10.88;;;;;;;19.96;69.45;94308.94;4952693;28;20247;-67
2022/06/10 09:55:39;;;;;;;13.52;12.27;;;;;;;19.73;70.70;94302.50;4951559;28;20224;-69
2022/06/10 09:58:12;;;;;;;13.07;11.85;;;;;;;19.32;71.40;94311.16;4946515;28;20227;-68
2022/06/10 10:00:40;;;;;;;11.85;10.95;;;;;;;18.88;73.46;94321.88;4949099;28;20236;-69
2022/06/10 10:03:33;;;;;;;12.25;11.10;;;;;;;19.23;74.73;94323.19;4953041;28;20235;-69
2022/06/10 10:06:14;;;;;;;14.05;12.60;;;;;;;19.46;73.72;94330.47;4965116;28;20275;-66
2022/06/10 10:09:03;;;;;;;13.93;12.50;;;;;;;19.48;70.96;94331.88;4949230;28;20224;-68
2022/06/10 10:11:42;;;;;;;15.40;14.00;;;;;;;19.52;72.80;94321.59;4964602;28;20231;-67
2022/06/10 10:14:45;;;;;;;13.30;12.00;;;;;;;19.68;72.82;94337.03;4948611;28;20311;-74
2022/06/10 10:17:52;;;;;;;12.43;11.40;;;;;;;19.59;71.93;94335.66;4964032;28;20231;-70
2022/06/10 10:20:26;;;;;;;13.13;11.82;;;;;;;19.59;73.95;94338.31;4950989;28;20241;-68
2022/06/10 10:23:00;;;;;;;18.40;14.65;;;;;;;19.71;75.21;94341.91;4993417;28;20234;-67
2022/06/10 10:25:27;;;;;;;15.07;12.80;;;;;;;19.77;75.61;94335.66;5000100;28;20351;-68
2022/06/10 10:27:56;;;;;;;11.13;10.13;;;;;;;19.49;74.37;94341.53;5006310;28;20218;-75
2022/06/10 10:30:40;;;;;;;11.15;10.02;;;;;;;19.55;75.28;94335.28;5002380;28;20218;-68
2022/06/10 10:33:10;;;;;;;11.77;10.77;;;;;;;19.52;77.12;94333.09;5000406;28;20214;-67
2022/06/10 10:35:41;;;;;;;9.68;8.88;;;;;;;19.62;75.75;94332.56;4999392;28;20223;-69
2022/06/10 10:38:29;;;;;;;9.82;8.90;;;;;;;19.51;75.23;94335.97;5011155;28;20220;-70
2022/06/10 10:40:57;;;;;;;9.45;8.65;;;;;;;19.39;74.62;94339.38;5018233;28;20237;-69
2022/06/10 10:43:30;;;;;;;9.73;8.80;;;;;;;19.42;74.10;94340.78;5004927;28;20203;-68
2022/06/10 10:45:58;;;;;;;10.55;9.55;;;;;;;19.53;74.63;94331.22;5003189;28;20231;-70
2022/06/10 10:48:36;;;;;;;10.20;9.32;;;;;;;19.52;74.29;94333.09;5005701;28;20257;-70
2022/06/10 10:51:11;;;;;;;8.88;8.18;;;;;;;19.65;72.23;94331.31;4997422;28;20219;-66
2022/06/10 10:53:41;;;;;;;10.57;7.63;;;;;;;19.67;71.34;94324.72;5002554;28;20215;-68
2022/06/10 10:56:09;;;;;;;7.45;6.88;;;;;;;19.78;70.60;94326.63;5000140;28;20491;-69
2022/06/10 10:58:46;;;;;;;8.23;7.40;;;;;;;19.97;70.46;94330.06;4994837;28;20227;-70
2022/06/10 11:03:56;;;;;;;8.73;7.90;;;;;;;20.27;69.59;94315.88;4995108;28;20238;-71
2022/06/10 11:06:28;;;;;;;9.50;8.48;;;;;;;20.28;69.24;94320.16;5000064;28;20231;-71
2022/06/10 11:09:00;;;;;;;9.77;8.88;;;;;;;20.34;69.42;94323.78;4998551;28;20245;-69
2022/06/10 11:11:32;;;;;;;8.95;8.13;;;;;;;20.03;70.57;94331.81;4995026;28;20230;-68
2022/06/10 11:14:04;;;;;;;9.05;8.25;;;;;;;20.15;70.09;94326.50;5003980;28;20238;-71
2022/06/10 11:16:38;;;;;;;10.27;9.27;;;;;;;20.18;70.27;94326.09;5005191;28;20252;-69
2022/06/10 11:19:17;;;;;;;9.07;8.38;;;;;;;20.14;71.40;94330.25;5005666;28;20192;-69
2022/06/10 11:22:02;;;;;;;8.48;7.80;;;;;;;20.34;68.97;94323.78;5012596;28;20250;-68
2022/06/10 11:24:35;;;;;;;7.80;7.15;;;;;;;20.49;69.23;94316.16;4991554;28;20219;-65
2022/06/10 11:27:17;;;;;;;8.00;7.30;;;;;;;20.59;68.77;94321.78;4992440;28;20237;-68
2022/06/10 11:29:43;;;;;;;8.45;7.75;;;;;;;20.84;67.54;94318.88;4993499;28;20218;-69
2022/06/10 11:32:23;;;;;;;8.65;7.95;;;;;;;21.17;66.30;94322.00;4997558;28;20227;-66
2022/06/10 11:34:56;;;;;;;9.20;8.50;;;;;;;21.55;66.29;94316.97;4995646;28;21311;-64
2022/06/10 11:37:36;;;;;;;12.60;11.50;;;;;;;21.69;65.23;94316.69;4995606;28;20203;-65
2022/06/10 11:40:21;;;;;;;7.63;6.93;;;;;;;22.10;63.20;94309.41;4996583;28;20237;-68
2022/06/10 11:43:02;;;;;;;9.32;8.52;;;;;;;22.20;63.28;94321.16;5002601;28;20324;-65
2022/06/10 11:45:37;;;;;;;8.40;7.60;;;;;;;22.27;62.08;94309.50;4996813;28;20223;-69
2022/06/10 11:48:13;;;;;;;11.50;10.60;;;;;;;22.51;63.17;94310.13;5004264;28;20317;-66
2022/06/10 11:50:54;;;;;;;9.15;8.45;;;;;;;22.53;63.54;94314.19;4997411;28;20242;-72
2022/06/10 11:53:37;;;;;;;9.63;8.82;;;;;;;22.60;63.78;94309.50;5013088;28;20230;-66
2022/06/10 12:01:47;;;;;;;9.00;8.10;;;;;;;22.78;61.47;94297.72;4993524;28;20218;-69
2022/06/10 12:04:17;;;;;;;7.88;7.30;;;;;;;22.18;63.42;94309.03;5006686;28;20361;-71
2022/06/10 12:06:52;;;;;;;7.53;6.93;;;;;;;21.72;62.42;94295.63;4993708;28;20263;-67
2022/06/10 12:09:29;;;;;;;6.60;6.10;;;;;;;22.38;61.41;94297.91;5009876;28;20226;-71
2022/06/10 12:12:25;;;;;;;6.57;6.07;;;;;;;23.20;58.78;94294.63;5001241;28;20233;-67
2022/06/10 12:14:55;;;;;;;5.78;5.22;;;;;;;23.75;53.73;94280.28;4994819;28;20238;-68
2022/06/10 12:17:28;;;;;;;5.28;4.88;;;;;;;24.33;53.74;94282.47;4993200;28;20235;-66
2022/06/10 12:20:16;;;;;;;5.68;5.18;;;;;;;24.42;53.39;94281.72;4998636;28;20238;-67